Detroit, MI

10:34 PM EDT on June 01, 2015 (GMT -0400)
University | | Change Station
CLOSE
Current Station
Personal Weather Station
Location: Windsor, ONTARIO
Elevation: 607 ft
Nearby Weather Stations

Elev 607 ft 42.31 °N, 83.06 °W | Updated 10 minutes ago

Overcast
Overcast
53.2 °F
Feels Like 53.2 °F
N
0.0
Wind Variable Wind from WNW

Today
High -- | Low -- °F
--% Chance of Precip.
Yesterday
High -- | Low -- °F
Precip. -- in
5:58 AM 9:02 PM
Full, 100% visible
Pressure 30.22 in
Visibility 10.0 miles
Clouds Overcast 3700 ft
Dew Point 42 °F
Humidity 66%
Rainfall 0.00 in
Snow Depth Not available.
UV 0 out of 12
Pollen 5.70 out of 12
Air Quality Not available.
Flu Activity Sporadic
METAR KDET 020153Z AUTO 03003KT 10SM OVC037 13/03 A3021 RMK AO2 SLP232 T01280033 $

More Conditions Fewer Conditions

Pressure 30.22 in
Visibility 10.0 miles
Clouds Overcast 3700 ft
Dew Point 42 °F
Humidity 66%
Rainfall 0.00 in
Snow Depth Not available.
UV 0 out of 12
Pollen 5.70 out of 12
Air Quality Not available.
Flu Activity Sporadic
METAR KDET 020153Z AUTO 03003KT 10SM OVC037 13/03 A3021 RMK AO2 SLP232 T01280033 $

More Conditions Fewer Conditions

10-Day Weather Forecast

Almanac

Astronomy

Jun. 01, 2015 Rise Set
Actual Time
Civil Twilight
Nautical Twilight
Astronomical Twilight
Moon
Length of Visible Light
Length of Day
Tomorrow will be .
, % of the Moon is Illuminated

Today's Extremes

State Highs State Lows

Community

WunderPhotos

Upload Photos

1,825,858 photos uploaded!

WunderBlogs® & News

Nearby

Air Quality

  Air Quality AQ Index Pollutant
Not available.

Snow Depth

Station Depth Elevation

Earthquake Activity

City Distance Mag. Time & Date
Minimum magnitude displayed is 2.5.

Coastal Water Temperatures

Place Temperature

Stations

Nearby Weather Stations

Station Location Temp. Windchill Dew Point Humidity Wind Precip. Elev Updated Type